Time;durP1;ratioP1;P1;durP2;ratioP2;P2;SDS_P1;SDS_P2;PMS_P1;PMS_P2;Temp;Humidity;BMP_temperature;BMP_pressure;BME280_temperature;BME280_humidity;BME280_pressure;Samples;Min_cycle;Max_cycle;Signal;HPM_P1;HPM_P2
2022/05/13 04:30:36;;;;;;;;;2.00;2.00;;;;;14.84;51.96;101831.47;5072342;27;45877;-76
2022/05/13 04:33:02;;;;;;;;;3.00;3.00;;;;;14.81;52.14;101823.50;5054949;28;45335;-77
2022/05/13 04:35:28;;;;;;;;;1.25;1.25;;;;;14.79;52.15;101825.44;5054730;28;45546;-78
2022/05/13 04:37:53;;;;;;;;;2.75;2.00;;;;;14.85;52.27;101841.34;5055331;28;45446;-75
2022/05/13 04:40:18;;;;;;;;;2.50;1.75;;;;;14.84;52.40;101844.97;5055243;28;45342;-77
2022/05/13 04:42:49;;;;;;;;;2.00;2.00;;;;;14.75;52.87;101838.19;5055326;28;45451;-77
2022/05/13 04:45:19;;;;;;;;;5.75;2.00;;;;;14.66;53.09;101839.47;5055168;28;45373;-76
2022/05/13 04:50:28;;;;;;;;;2.25;2.25;;;;;14.67;53.76;101838.53;5055046;28;45307;-76
2022/05/13 04:52:53;;;;;;;;;5.00;4.00;;;;;14.69;54.09;101852.84;5055166;28;45286;-76
2022/05/13 04:55:19;;;;;;;;;2.75;2.75;;;;;14.56;54.26;101837.25;5055183;28;45291;-75
2022/05/13 04:57:44;;;;;;;;;3.25;3.00;;;;;14.57;54.22;101852.50;5055034;28;45585;-77
2022/05/13 05:00:10;;;;;;;;;1.00;1.00;;;;;14.41;54.54;101829.84;5055043;28;46325;-76
2022/05/13 05:02:35;;;;;;;;;3.00;3.00;;;;;14.57;54.71;101855.22;5054729;28;45303;-75
2022/05/13 05:05:01;;;;;;;;;5.00;2.50;;;;;14.53;54.69;101859.88;5055261;28;45221;-76
2022/05/13 05:07:26;;;;;;;;;2.00;2.00;;;;;14.56;54.44;101869.63;5054784;28;45408;-77
2022/05/13 05:09:52;;;;;;;;;3.25;3.25;;;;;14.52;54.86;101868.03;5055056;28;45312;-77
2022/05/13 05:12:17;;;;;;;;;2.00;2.00;;;;;14.49;55.04;101869.03;5058660;28;45172;-73
2022/05/13 05:14:43;;;;;;;;;5.00;2.75;;;;;14.47;55.00;101876.31;5037683;28;45576;-76
2022/05/13 05:17:08;;;;;;;;;3.00;2.75;;;;;14.43;55.45;101872.03;5034548;28;45513;-72
2022/05/13 05:19:33;;;;;;;;;2.75;2.75;;;;;14.34;55.65;101873.25;5034701;28;46449;-75
2022/05/13 05:21:59;;;;;;;;;2.25;2.25;;;;;14.45;55.99;101886.31;5024246;28;45471;-76
2022/05/13 05:24:25;;;;;;;;;3.00;3.00;;;;;14.41;55.63;101878.41;5052758;28;45291;-79
2022/05/13 05:26:51;;;;;;;;;2.00;2.00;;;;;14.49;55.82;101887.94;5055726;28;45478;-77
2022/05/13 05:29:16;;;;;;;;;2.75;2.75;;;;;14.42;55.85;101874.78;5042119;28;46360;-77
2022/05/13 05:31:42;;;;;;;;;4.00;2.75;;;;;14.49;56.40;101895.16;5054674;28;45366;-75
2022/05/13 05:34:09;;;;;;;;;2.50;2.50;;;;;14.46;56.23;101898.84;5055174;28;45359;-77
2022/05/13 05:36:35;;;;;;;;;2.00;2.00;;;;;14.48;55.78;101902.38;5045460;28;45288;-74
2022/05/13 05:39:01;;;;;;;;;3.00;3.00;;;;;14.50;55.70;101903.19;5041706;28;46005;-78
2022/05/13 05:41:26;;;;;;;;;2.00;2.00;;;;;14.51;56.14;101904.06;5055301;28;45374;-76
2022/05/13 05:43:51;;;;;;;;;4.50;4.50;;;;;14.22;56.16;101851.31;5054571;28;45276;-77
2022/05/13 05:46:17;;;;;;;;;2.00;2.00;;;;;14.51;55.99;101904.06;5053588;28;45466;-76
2022/05/13 05:48:42;;;;;;;;;4.25;3.00;;;;;14.33;56.23;101876.91;5054370;28;45347;-77
2022/05/13 05:51:08;;;;;;;;;3.25;3.00;;;;;14.48;55.93;101904.19;5054431;28;45351;-76
2022/05/13 05:59:04;;;;;;;;;2.25;2.25;;;;;14.65;55.75;101898.91;5054376;28;45350;-76
2022/05/13 06:01:29;;;;;;;;;3.00;3.00;;;;;14.69;56.32;101911.34;5053837;28;45403;-77
2022/05/13 06:03:55;;;;;;;;;2.25;2.25;;;;;14.78;56.53;101913.63;5036119;28;45746;-76
2022/05/13 06:06:20;;;;;;;;;2.50;2.50;;;;;14.90;55.92;101913.06;5054061;28;45510;-77
2022/05/13 06:08:46;;;;;;;;;2.00;2.00;;;;;15.04;55.52;101913.34;5054306;28;45472;-75
2022/05/13 06:11:11;;;;;;;;;4.75;3.50;;;;;15.18;55.69;101919.91;5054361;28;45310;-77
2022/05/13 06:13:37;;;;;;;;;5.00;3.25;;;;;15.27;55.21;101925.78;5045072;28;45671;-76
2022/05/13 06:16:03;;;;;;;;;2.25;2.25;;;;;15.22;55.17;101916.13;5033877;28;45466;-75
2022/05/13 06:18:28;;;;;;;;;11.75;6.75;;;;;15.18;55.65;101912.69;5034281;28;46111;-75
2022/05/13 06:20:54;;;;;;;;;3.50;2.75;;;;;15.32;55.48;101926.41;5033911;28;45277;-76
2022/05/13 06:23:19;;;;;;;;;43.75;25.00;;;;;15.41;54.90;101917.00;5021795;28;45235;-75
2022/05/13 06:25:44;;;;;;;;;4.00;2.25;;;;;15.39;54.81;101914.41;5030825;28;45243;-76
2022/05/13 06:28:10;;;;;;;;;4.00;4.00;;;;;15.61;54.70;101935.91;5054039;28;45395;-76
2022/05/13 06:30:36;;;;;;;;;2.00;2.00;;;;;15.70;54.23;101937.28;5053421;28;45276;-76
2022/05/13 06:33:03;;;;;;;;;4.75;3.00;;;;;15.76;54.05;101939.69;5054078;28;45290;-74
2022/05/13 06:35:30;;;;;;;;;4.50;1.25;;;;;15.80;53.87;101941.31;5053297;28;45315;-75
2022/05/13 06:37:55;;;;;;;;;6.50;3.75;;;;;15.83;53.42;101946.53;5053850;28;45410;-77
2022/05/13 06:40:24;;;;;;;;;4.00;4.00;;;;;15.72;53.25;101925.47;5053686;28;45323;-78
2022/05/13 06:42:51;;;;;;;;;4.25;4.00;;;;;15.84;53.19;101938.38;5032317;28;45324;-74
2022/05/13 06:45:16;;;;;;;;;0.25;0.25;;;;;15.85;53.00;101936.53;5049908;28;45431;-75
2022/05/13 06:47:42;;;;;;;;;4.50;2.75;;;;;15.83;52.45;101949.25;5053725;28;45797;-75
2022/05/13 06:50:11;;;;;;;;;2.00;2.00;;;;;15.73;52.35;101942.56;5053310;28;45248;-77
2022/05/13 06:52:36;;;;;;;;;2.25;1.00;;;;;15.69;52.36;101949.06;5030788;28;45570;-76
2022/05/13 06:55:03;;;;;;;;;5.00;2.75;;;;;15.57;53.00;101930.72;5040897;28;45517;-76
2022/05/13 06:57:28;;;;;;;;;0.00;0.00;;;;;15.66;52.67;101943.78;5037227;28;47010;-76
2022/05/13 06:59:54;;;;;;;;;1.50;1.50;;;;;15.74;52.67;101947.88;5036775;28;45251;-76
2022/05/13 07:02:19;;;;;;;;;3.00;3.00;;;;;15.87;52.07;101957.16;5036801;28;45295;-77
2022/05/13 07:04:47;;;;;;;;;2.00;2.00;;;;;15.86;52.09;101958.09;5046417;28;45335;-74
2022/05/13 07:07:13;;;;;;;;;1.75;1.75;;;;;15.76;50.95;101945.97;5031945;28;45864;-73
2022/05/13 07:09:39;;;;;;;;;1.00;1.00;;;;;15.83;51.58;101960.06;5047266;28;45378;-74
2022/05/13 07:12:06;;;;;;;;;2.00;2.00;;;;;15.83;50.59;101958.25;5057354;28;46061;-76
2022/05/13 07:14:31;;;;;;;;;1.50;1.00;;;;;15.78;50.33;101954.03;5040800;28;45360;-75
2022/05/13 07:16:56;;;;;;;;;0.75;0.75;;;;;15.80;49.79;101961.13;5036259;28;45402;-74
2022/05/13 07:19:22;;;;;;;;;0.25;0.25;;;;;15.83;49.09;101949.25;5036156;28;45347;-75
2022/05/13 07:21:48;;;;;;;;;0.25;0.25;;;;;15.91;49.10;101951.59;5018347;28;45701;-74
2022/05/13 07:24:13;;;;;;;;;4.75;2.25;;;;;15.93;48.85;101952.38;5035716;28;45298;-73
2022/05/13 07:26:39;;;;;;;;;3.50;1.00;;;;;15.94;48.79;101959.56;5035511;28;45430;-74
2022/05/13 07:29:05;;;;;;;;;1.00;1.00;;;;;15.78;48.18;101935.97;5036178;28;45358;-75
2022/05/13 07:31:31;;;;;;;;;3.00;1.50;;;;;15.94;48.09;101956.84;5036217;28;45403;-75
2022/05/13 07:33:56;;;;;;;;;1.25;1.25;;;;;15.92;48.38;101951.50;5035810;28;45568;-73
2022/05/13 07:36:21;;;;;;;;;2.00;0.75;;;;;15.89;48.24;101935.44;5035658;28;45316;-75
2022/05/13 07:41:31;;;;;;;;;1.00;1.00;;;;;16.05;47.44;101957.22;5034980;28;45376;-74
2022/05/13 07:43:57;;;;;;;;;2.75;2.75;;;;;15.99;47.77;101947.53;5036308;28;45311;-71
2022/05/13 07:46:22;;;;;;;;;0.00;0.00;;;;;15.94;47.09;101946.91;5036319;28;45538;-72
2022/05/13 07:48:48;;;;;;;;;2.00;1.00;;;;;16.06;46.61;101957.13;5053900;28;45438;-74
2022/05/13 07:51:13;;;;;;;;;0.00;0.00;;;;;16.13;45.96;101965.81;5055923;28;45403;-72
2022/05/13 07:53:39;;;;;;;;;1.00;1.00;;;;;16.17;45.96;101960.16;5056032;28;45494;-73
2022/05/13 07:56:06;;;;;;;;;1.75;1.50;;;;;16.37;45.98;101969.13;5054906;28;45470;-73
2022/05/13 07:58:31;;;;;;;;;0.25;0.25;;;;;16.42;45.35;101959.81;5055186;28;45385;-73
2022/05/13 08:00:58;;;;;;;;;0.00;0.00;;;;;16.54;45.68;101974.56;5054650;28;45328;-77
2022/05/13 08:03:26;;;;;;;;;0.75;0.75;;;;;16.62;45.83;101973.25;5039733;28;46128;-73
2022/05/13 08:05:53;;;;;;;;;1.75;0.00;;;;;16.69;45.45;101962.97;5053428;28;46169;-75
2022/05/13 08:08:23;;;;;;;;;0.00;0.00;;;;;16.79;43.76;101958.81;5056055;28;45431;-73
2022/05/13 08:10:52;;;;;;;;;0.00;0.00;;;;;16.73;42.88;101961.84;5054806;28;45318;-73
2022/05/13 08:13:19;;;;;;;;;0.00;0.00;;;;;16.57;44.55;101942.78;5049497;28;45572;-74
2022/05/13 08:15:44;;;;;;;;;1.00;0.75;;;;;16.69;45.09;101956.66;5035302;28;45981;-74
2022/05/13 08:18:09;;;;;;;;;2.00;0.00;;;;;16.71;45.10;101943.94;5035560;28;45360;-74
2022/05/13 08:20:35;;;;;;;;;0.75;0.75;;;;;16.87;45.74;101966.53;5035438;28;45418;-73
2022/05/13 08:23:02;;;;;;;;;1.00;1.00;;;;;16.82;46.35;101966.78;5035341;28;45530;-76
2022/05/13 08:25:27;;;;;;;;;2.00;0.50;;;;;16.84;46.03;101962.16;5035146;28;45459;-76
2022/05/13 08:27:53;;;;;;;;;1.00;1.00;;;;;16.93;46.72;101966.22;5051940;28;45331;-73
2022/05/13 08:30:19;;;;;;;;;1.00;1.00;;;;;16.89;46.77;101954.69;5055198;28;45312;-73
2022/05/13 08:32:45;;;;;;;;;3.25;1.75;;;;;17.03;46.86;101962.06;5033198;28;45514;-73
2022/05/13 08:35:11;;;;;;;;;1.00;1.00;;;;;16.98;46.89;101943.34;5045037;28;45369;-73
2022/05/13 08:37:48;;;;;;;;;1.00;1.00;;;;;17.15;46.42;101965.97;5054666;28;45481;-73
2022/05/13 08:40:54;;;;;;;;;1.00;1.00;;;;;17.11;45.86;101967.94;5055503;28;45437;-73
2022/05/13 08:43:24;;;;;;;;;0.25;0.25;;;;;16.98;46.13;101972.28;5020430;28;45978;-73
2022/05/13 08:45:57;;;;;;;;;1.00;1.00;;;;;16.90;46.10;101969.97;5055067;28;45346;-74
2022/05/13 08:48:56;;;;;;;;;0.00;0.00;;;;;16.96;46.18;101969.66;5054520;28;45366;-72
2022/05/13 08:51:40;;;;;;;;;2.00;0.00;;;;;16.96;45.92;101961.50;5029001;28;45400;-75
2022/05/13 08:54:30;;;;;;;;;1.00;1.00;;;;;17.11;45.01;101973.34;5053787;28;45578;-74
2022/05/13 08:57:02;;;;;;;;;0.50;0.50;;;;;17.21;44.91;101971.03;5054311;28;45485;-75
2022/05/13 08:59:49;;;;;;;;;1.00;1.00;;;;;17.35;44.44;101965.75;5055030;28;45339;-73
2022/05/13 09:02:26;;;;;;;;;1.00;1.00;;;;;17.36;43.96;101959.34;5054823;28;45439;-75
2022/05/13 09:04:59;;;;;;;;;1.00;1.00;;;;;17.46;43.52;101971.44;5054273;28;45529;-75
2022/05/13 09:07:25;;;;;;;;;2.00;2.00;;;;;17.44;43.62;101970.66;5054829;28;46237;-73
2022/05/13 09:09:55;;;;;;;;;2.00;1.00;;;;;17.23;43.26;101944.72;5054695;28;45639;-75
2022/05/13 09:12:37;;;;;;;;;1.00;1.00;;;;;17.25;44.08;101959.97;5053779;28;45375;-73
2022/05/13 09:15:12;;;;;;;;;1.00;1.00;;;;;17.27;44.42;101963.44;5055067;28;45425;-72
2022/05/13 09:17:54;;;;;;;;;0.50;0.50;;;;;17.33;41.92;101965.84;5055068;28;45645;-74
2022/05/13 09:20:24;;;;;;;;;1.25;0.75;;;;;17.31;42.72;101964.16;5054721;28;45387;-75
2022/05/13 09:22:52;;;;;;;;;0.50;0.00;;;;;17.41;42.13;101970.84;5054496;28;45406;-72
2022/05/13 09:25:34;;;;;;;;;0.50;0.00;;;;;17.32;41.63;101969.50;5054798;28;45314;-72
2022/05/13 09:28:13;;;;;;;;;1.00;1.00;;;;;17.32;42.80;101966.78;5054293;28;46294;-75
2022/05/13 09:30:43;;;;;;;;;1.75;1.75;;;;;17.38;43.25;101968.28;5043526;28;45210;-75
2022/05/13 09:33:24;;;;;;;;;0.00;0.00;;;;;17.38;42.70;101965.56;5044149;28;45423;-74
2022/05/13 09:35:56;;;;;;;;;1.00;1.00;;;;;17.33;41.70;101963.13;5053076;28;45536;-73
2022/05/13 09:38:26;;;;;;;;;1.00;1.00;;;;;17.34;39.51;101972.13;5054461;28;48671;-73
2022/05/13 09:40:56;;;;;;;;;0.00;0.00;;;;;17.33;40.37;101967.69;5032570;28;45502;-74
2022/05/13 09:43:39;;;;;;;;;0.00;0.00;;;;;17.29;39.64;101963.38;5047324;28;45369;-75
2022/05/13 09:46:22;;;;;;;;;0.00;0.00;;;;;17.24;40.09;101949.19;5054686;28;45480;-73
2022/05/13 09:48:57;;;;;;;;;2.00;1.00;;;;;17.37;39.24;101963.81;5054179;28;45445;-77
2022/05/13 09:51:33;;;;;;;;;0.00;0.00;;;;;17.45;39.94;101975.13;5054091;28;45482;-77
2022/05/13 09:54:19;;;;;;;;;0.00;0.00;;;;;17.49;38.50;101963.16;5041728;28;45552;-75
2022/05/13 09:56:52;;;;;;;;;1.25;0.00;;;;;17.38;38.91;101947.47;5035802;28;45544;-77
2022/05/13 09:59:25;;;;;;;;;1.25;1.25;;;;;17.53;39.42;101956.59;5033147;28;45490;-78
2022/05/13 10:01:51;;;;;;;;;3.00;3.00;;;;;17.46;39.33;101935.31;5037712;28;45841;-75
2022/05/13 10:04:26;;;;;;;;;4.00;2.00;;;;;17.59;39.04;101947.25;5052836;28;45437;-77
2022/05/13 10:07:13;;;;;;;;;1.00;1.00;;;;;17.59;38.99;101937.28;5053903;28;45350;-75
2022/05/13 10:15:30;;;;;;;;;2.00;2.00;;;;;17.78;39.67;101929.00;5044652;28;45337;-80
2022/05/13 10:18:09;;;;;;;;;2.00;2.00;;;;;17.94;39.12;101938.03;5033515;28;46065;-78
2022/05/13 10:20:40;;;;;;;;;0.50;0.00;;;;;17.99;40.10;101935.91;5046969;28;45375;-77
2022/05/13 10:23:11;;;;;;;;;0.50;0.25;;;;;18.13;39.00;101949.53;5054701;28;45363;-75
2022/05/13 10:25:40;;;;;;;;;1.00;1.00;;;;;18.13;38.30;101946.81;5054259;28;45324;-78
2022/05/13 10:28:15;;;;;;;;;0.25;0.25;;;;;18.08;38.64;101932.66;5054073;28;45802;-76
2022/05/13 10:31:05;;;;;;;;;1.50;1.00;;;;;18.12;39.12;101945.06;5053762;28;45468;-77
2022/05/13 10:34:04;;;;;;;;;0.25;0.25;;;;;18.14;38.71;101934.13;5055938;28;45485;-80
2022/05/13 10:36:44;;;;;;;;;1.00;1.00;;;;;18.10;38.23;101941.59;5039543;28;45557;-73
2022/05/13 10:39:30;;;;;;;;;0.75;0.75;;;;;18.08;39.09;101931.78;5036329;28;45732;-76
2022/05/13 10:41:58;;;;;;;;;1.50;1.50;;;;;18.20;38.07;101935.63;5052502;28;45494;-78
2022/05/13 10:44:40;;;;;;;;;4.25;1.00;;;;;18.29;38.74;101930.50;5052519;28;45240;-75
2022/05/13 10:47:18;;;;;;;;;2.50;1.00;;;;;18.26;37.92;101906.28;5038046;28;45442;-77
2022/05/13 10:49:44;;;;;;;;;0.50;0.50;;;;;18.45;38.35;101936.81;5037781;28;45550;-78
2022/05/13 10:52:16;;;;;;;;;0.00;0.00;;;;;18.48;38.31;101924.88;5056258;28;45362;-76
2022/05/13 10:54:57;;;;;;;;;0.75;0.00;;;;;18.53;38.19;101918.22;5056409;28;45441;-78
2022/05/13 10:57:23;;;;;;;;;3.50;1.00;;;;;18.64;38.84;101917.56;5045366;28;45304;-77
2022/05/13 11:00:26;;;;;;;;;0.75;0.75;;;;;18.75;38.88;101920.50;5056378;28;45343;-78
2022/05/13 11:03:31;;;;;;;;;4.00;1.00;;;;;18.80;37.61;101912.06;5054788;28;46164;-79
2022/05/13 11:06:24;;;;;;;;;1.00;1.00;;;;;18.85;37.97;101912.66;5036193;28;45325;-75
2022/05/13 11:09:02;;;;;;;;;0.00;0.00;;;;;18.78;37.95;101884.13;5046624;28;45388;-77
2022/05/13 11:11:29;;;;;;;;;2.25;1.00;;;;;19.05;38.00;101897.84;5056618;28;45300;-78
2022/05/13 11:14:34;;;;;;;;;1.00;1.00;;;;;19.18;38.57;101906.97;5045318;28;45987;-79
2022/05/13 11:17:09;;;;;;;;;1.00;1.00;;;;;19.28;37.60;101899.97;5036636;28;45468;-78
2022/05/13 11:20:06;;;;;;;;;2.00;1.25;;;;;19.34;37.59;101895.97;5036536;28;45553;-79
2022/05/13 11:22:46;;;;;;;;;1.75;1.50;;;;;19.43;38.49;101893.53;5036017;28;45404;-77
2022/05/13 11:28:41;;;;;;;;;1.00;1.00;;;;;19.51;37.30;101853.16;5044989;28;45330;-77
2022/05/13 11:31:18;;;;;;;;;1.50;1.50;;;;;19.83;37.94;101890.94;5056833;28;45447;-79
2022/05/13 11:34:04;;;;;;;;;1.25;1.25;;;;;19.76;36.42;101882.31;5056832;28;45509;-77
2022/05/13 11:36:45;;;;;;;;;1.00;1.00;;;;;19.93;37.47;101897.53;5055844;28;46176;-77
2022/05/13 11:39:35;;;;;;;;;3.00;1.25;;;;;19.94;36.36;101891.13;5056244;28;45340;-76
2022/05/13 11:42:28;;;;;;;;;3.00;1.00;;;;;20.03;37.14;101890.50;5055497;28;45454;-77
2022/05/13 11:45:42;;;;;;;;;3.50;1.50;;;;;20.21;36.87;101891.13;5046862;28;45546;-75
2022/05/13 11:48:35;;;;;;;;;2.75;1.50;;;;;20.45;37.02;101889.47;5049091;28;46210;-75
2022/05/13 11:51:16;;;;;;;;;1.00;1.00;;;;;20.52;36.20;101863.53;5030212;28;45325;-74
2022/05/13 11:53:44;;;;;;;;;1.50;1.50;;;;;20.81;36.42;101888.75;5031389;28;45377;-75
2022/05/13 11:56:30;;;;;;;;;2.50;1.00;;;;;20.91;34.78;101883.53;5056140;28;45309;-76
2022/05/13 11:58:57;;;;;;;;;1.50;0.25;;;;;21.02;35.56;101875.44;5055509;28;46019;-75
2022/05/13 12:01:35;;;;;;;;;3.00;1.00;;;;;21.26;35.29;101872.84;5039736;28;45446;-76
2022/05/13 12:04:12;;;;;;;;;1.75;1.75;;;;;21.42;34.83;101871.59;5046112;28;45459;-76
2022/05/13 12:06:50;;;;;;;;;0.00;0.00;;;;;21.64;34.70;101868.16;5049837;28;45521;-77
2022/05/13 12:09:54;;;;;;;;;2.00;2.00;;;;;21.77;32.66;101874.47;5049476;28;46048;-76
2022/05/13 12:12:49;;;;;;;;;0.75;0.75;;;;;21.81;33.75;101862.31;5031382;28;45474;-77
2022/05/13 12:15:44;;;;;;;;;1.00;1.00;;;;;21.95;33.46;101877.63;5048171;28;45427;-77
2022/05/13 12:18:19;;;;;;;;;3.25;2.00;;;;;22.16;32.94;101870.59;5049875;28;45510;-78
2022/05/13 12:20:55;;;;;;;;;1.00;1.00;;;;;22.27;33.04;101877.97;5035551;28;45456;-78
2022/05/13 12:23:34;;;;;;;;;2.75;1.50;;;;;22.36;32.67;101866.31;5036080;28;45355;-75
2022/05/13 12:26:02;;;;;;;;;2.00;2.00;;;;;22.41;30.67;101846.81;5035596;28;45426;-74
2022/05/13 12:28:39;;;;;;;;;2.25;1.75;;;;;22.51;30.71;101856.03;5035470;28;45266;-76
2022/05/13 12:31:29;;;;;;;;;2.75;2.00;;;;;22.68;31.13;101860.19;5035157;28;45407;-75
2022/05/13 12:39:54;;;;;;;;;0.75;0.75;;;;;23.04;29.97;101843.63;5030695;28;45352;-75
2022/05/13 12:42:38;;;;;;;;;0.75;0.75;;;;;22.98;30.70;101831.28;5054948;28;45340;-77
2022/05/13 12:45:04;;;;;;;;;1.00;1.00;;;;;23.25;30.28;101843.72;5055245;28;45317;-77
2022/05/13 12:47:51;;;;;;;;;1.25;1.25;;;;;23.48;30.62;101841.84;5055319;28;45428;-76
2022/05/13 12:50:28;;;;;;;;;1.00;1.00;;;;;23.69;29.84;101827.25;5054744;28;45441;-77
2022/05/13 12:52:55;;;;;;;;;0.25;0.25;;;;;23.83;29.39;101836.16;5054372;28;45995;-76
2022/05/13 12:55:24;;;;;;;;;1.50;1.50;;;;;24.22;29.48;101831.94;5054378;28;45392;-75
2022/05/13 12:58:04;;;;;;;;;1.50;0.50;;;;;24.75;28.65;101825.38;5054775;28;45343;-75
2022/05/13 13:00:42;;;;;;;;;1.00;1.00;;;;;25.20;28.90;101816.81;5054776;28;45335;-76
2022/05/13 13:03:12;;;;;;;;;1.00;1.00;;;;;25.49;28.76;101828.75;5054623;28;46237;-77
2022/05/13 13:05:41;;;;;;;;;1.00;1.00;;;;;25.88;27.14;101826.09;5055184;28;45513;-74
2022/05/13 13:08:19;;;;;;;;;1.00;1.00;;;;;25.67;27.37;101808.88;5051385;28;45359;-80
2022/05/13 13:10:49;;;;;;;;;1.50;1.50;;;;;25.49;27.51;101812.28;5051624;28;45485;-78
2022/05/13 13:13:29;;;;;;;;;1.00;1.00;;;;;25.74;26.89;101808.19;5048579;28;45426;-73
2022/05/13 13:15:59;;;;;;;;;1.25;1.25;;;;;25.95;27.29;101806.16;5034119;28;45272;-74
2022/05/13 13:18:34;;;;;;;;;0.00;0.00;;;;;26.45;26.62;101813.41;5034835;28;45419;-77
2022/05/13 13:21:09;;;;;;;;;1.00;1.00;;;;;26.66;26.06;101803.94;5050819;28;45351;-76
2022/05/13 13:23:39;;;;;;;;;1.00;0.00;;;;;26.90;25.66;101797.03;5054172;28;45450;-76
2022/05/13 13:26:08;;;;;;;;;1.00;1.00;;;;;27.02;25.61;101801.38;5036670;28;45340;-80
2022/05/13 13:28:36;;;;;;;;;1.00;1.00;;;;;27.15;26.10;101803.78;5055401;28;45282;-77
2022/05/13 13:31:10;;;;;;;;;1.00;1.00;;;;;27.44;26.02;101790.72;5053918;28;45778;-75
2022/05/13 13:33:43;;;;;;;;;1.25;1.00;;;;;27.63;25.04;101804.41;5041290;28;45367;-77
2022/05/13 13:36:16;;;;;;;;;1.75;1.00;;;;;27.61;24.79;101805.59;5042072;28;45430;-74
2022/05/13 13:38:49;;;;;;;;;1.00;1.00;;;;;27.37;24.53;101792.38;5054860;28;45253;-77
2022/05/13 13:41:28;;;;;;;;;0.00;0.00;;;;;27.41;24.79;101797.41;5054758;28;45332;-75
2022/05/13 13:43:56;;;;;;;;;1.50;0.00;;;;;27.69;24.17;101800.16;5054208;28;45372;-79
2022/05/13 13:46:31;;;;;;;;;1.00;1.00;;;;;28.02;23.34;101806.88;5054424;28;45316;-78
2022/05/13 13:49:00;;;;;;;;;1.25;0.00;;;;;28.32;23.40;101778.91;5054097;28;45625;-77
2022/05/13 13:51:31;;;;;;;;;0.50;0.50;;;;;28.98;23.29;101790.25;5054033;28;45340;-78
2022/05/13 13:54:01;;;;;;;;;1.00;1.00;;;;;29.51;22.11;101785.47;5038295;28;47129;-79
2022/05/13 13:56:31;;;;;;;;;0.00;0.00;;;;;30.14;22.57;101793.19;5036479;28;45443;-81
2022/05/13 13:59:21;;;;;;;;;0.75;0.75;;;;;30.89;21.27;101778.06;5033886;28;45339;-78
2022/05/13 14:01:54;;;;;;;;;0.25;0.25;;;;;31.46;20.88;101784.28;5032059;28;46626;-78
2022/05/13 14:04:26;;;;;;;;;2.50;1.00;;;;;31.64;19.38;101783.16;5046680;28;46159;-78
2022/05/13 14:06:53;;;;;;;;;0.00;0.00;;;;;31.90;20.82;101778.13;5054711;28;45395;-80
2022/05/13 14:09:34;;;;;;;;;1.00;1.00;;;;;32.44;19.78;101780.81;5058304;28;45366;-80
2022/05/13 14:12:02;;;;;;;;;0.25;0.00;;;;;32.68;18.89;101781.41;5048987;28;45504;-80
2022/05/13 14:14:30;;;;;;;;;0.00;0.00;;;;;32.79;19.13;101752.34;5059553;28;45656;-80
2022/05/13 14:17:05;;;;;;;;;1.00;1.00;;;;;33.34;18.88;101784.34;5058421;28;45361;-80
2022/05/13 14:19:37;;;;;;;;;1.75;0.00;;;;;33.52;18.21;101753.34;5058453;28;45317;-82
2022/05/13 14:22:05;;;;;;;;;1.25;1.00;;;;;33.85;18.31;101770.44;5057989;28;45378;-81
2022/05/13 14:24:32;;;;;;;;;2.00;0.50;;;;;34.09;17.15;101782.03;5036740;28;45487;-80
2022/05/13 14:26:59;;;;;;;;;0.00;0.00;;;;;33.71;17.68;101763.81;5050850;28;45330;-80
2022/05/13 14:29:30;;;;;;;;;2.00;0.00;;;;;33.86;18.39;101761.88;5058323;28;45370;-79
2022/05/13 14:32:02;;;;;;;;;2.25;0.00;;;;;34.12;17.97;101764.91;5057785;28;45233;-81
2022/05/13 14:34:28;;;;;;;;;0.50;0.00;;;;;34.39;17.57;101770.75;5036108;28;47264;-80
2022/05/13 14:37:00;;;;;;;;;1.00;1.00;;;;;34.38;17.36;101760.66;5051531;28;45324;-78
2022/05/13 14:39:49;;;;;;;;;1.00;0.00;;;;;34.43;17.27;101752.56;5057053;28;45461;-79
2022/05/13 14:42:16;;;;;;;;;1.00;1.00;;;;;34.48;17.13;101762.03;5055228;28;45473;-81
2022/05/13 14:44:48;;;;;;;;;0.00;0.00;;;;;34.20;17.67;101771.41;5058873;28;46673;-84
2022/05/13 14:47:26;;;;;;;;;2.00;0.00;;;;;33.31;18.59;101760.59;5042214;28;45391;-83
2022/05/13 14:50:16;;;;;;;;;0.00;0.00;;;;;32.94;18.26;101757.91;5061994;28;45454;-81
2022/05/13 14:52:46;;;;;;;;;0.25;0.25;;;;;32.90;18.55;101748.25;5046425;28;47777;-82
2022/05/13 14:55:31;;;;;;;;;0.00;0.00;;;;;33.04;18.05;101747.34;5060050;28;45336;-81
2022/05/13 14:58:00;;;;;;;;;0.00;0.00;;;;;32.72;18.74;101737.50;5039412;28;45420;-77
2022/05/13 15:00:30;;;;;;;;;0.25;0.00;;;;;32.73;18.37;101752.25;5050194;28;45482;-80
2022/05/13 15:03:06;;;;;;;;;0.00;0.00;;;;;32.46;18.41;101735.16;5037977;28;47266;-81
2022/05/13 15:05:37;;;;;;;;;0.00;0.00;;;;;32.42;18.71;101761.56;5058463;28;46463;-80
2022/05/13 15:08:40;;;;;;;;;1.00;0.00;;;;;32.20;18.64;101745.81;5042716;28;45759;-81
2022/05/13 15:11:09;;;;;;;;;1.00;1.00;;;;;32.46;18.80;101749.03;5043154;28;45444;-81
2022/05/13 15:13:34;;;;;;;;;1.00;0.25;;;;;32.41;19.14;101751.50;5032156;28;47100;-78
2022/05/13 15:16:00;;;;;;;;;0.25;0.25;;;;;32.31;19.90;101728.72;5039202;28;46222;-84
2022/05/13 15:18:32;;;;;;;;;0.25;0.00;;;;;32.46;19.55;101746.25;5038611;28;45341;-82
2022/05/13 15:21:00;;;;;;;;;1.75;0.75;;;;;32.50;18.94;101703.19;5041619;28;45445;-84
2022/05/13 15:23:26;;;;;;;;;1.50;0.50;;;;;32.76;19.12;101749.09;5060647;28;45277;-81
2022/05/13 15:25:52;;;;;;;;;0.00;0.00;;;;;32.62;19.43;101739.66;5039329;28;46080;-77
2022/05/13 15:28:21;;;;;;;;;0.00;0.00;;;;;32.58;19.25;101735.56;5048048;28;45538;-81
2022/05/13 15:30:48;;;;;;;;;1.25;0.00;;;;;32.40;18.97;101746.16;5034055;28;45333;-79
2022/05/13 15:33:13;;;;;;;;;0.00;0.00;;;;;32.06;19.48;101741.06;5046801;28;45378;-77
2022/05/13 15:35:39;;;;;;;;;0.00;0.00;;;;;32.13;19.25;101742.06;5052200;28;45570;-78
2022/05/13 15:38:06;;;;;;;;;0.00;0.00;;;;;32.13;19.73;101744.81;5053004;28;45488;-77
2022/05/13 15:40:32;;;;;;;;;0.75;0.75;;;;;32.25;19.44;101727.56;5035951;28;45359;-76
2022/05/13 15:42:58;;;;;;;;;0.00;0.00;;;;;32.27;19.41;101733.78;5043822;28;45994;-79
2022/05/13 15:45:25;;;;;;;;;2.00;1.00;;;;;32.22;19.98;101740.97;5052320;28;45414;-79
2022/05/13 15:47:53;;;;;;;;;0.00;0.00;;;;;32.18;19.76;101742.38;5056322;28;45276;-79
2022/05/13 15:53:07;;;;;;;;;2.00;0.50;;;;;31.86;20.46;101724.94;5056590;28;45462;-77
2022/05/13 15:55:44;;;;;;;;;1.00;1.00;;;;;31.81;20.54;101745.97;5056244;28;45374;-78
2022/05/13 15:58:31;;;;;;;;;1.00;1.00;;;;;31.34;20.64;101732.19;5056338;28;45433;-76
2022/05/13 16:00:56;;;;;;;;;2.00;0.00;;;;;30.60;21.43;101723.31;5037202;28;45416;-80
2022/05/13 16:03:22;;;;;;;;;1.75;1.00;;;;;30.56;21.91;101746.84;5056329;28;45332;-79
2022/05/13 16:05:49;;;;;;;;;0.75;0.75;;;;;30.40;21.37;101731.09;5034940;28;47714;-78
2022/05/13 16:08:15;;;;;;;;;1.00;1.00;;;;;30.42;21.40;101731.78;5054662;28;45481;-80
2022/05/13 16:10:41;;;;;;;;;0.75;0.00;;;;;30.37;22.27;101744.41;5021388;28;45338;-79
2022/05/13 16:13:20;;;;;;;;;0.25;0.25;;;;;30.45;21.62;101712.03;5051301;28;45339;-79
2022/05/13 16:15:53;;;;;;;;;0.75;0.75;;;;;30.58;21.90;101713.44;5035872;28;46070;-76
2022/05/13 16:18:24;;;;;;;;;0.75;0.75;;;;;30.57;21.55;101740.25;5035461;28;45312;-78
2022/05/13 16:20:51;;;;;;;;;0.00;0.00;;;;;30.53;21.35;101743.56;5037595;28;45337;-79
2022/05/13 16:23:18;;;;;;;;;0.00;0.00;;;;;30.14;22.03;101738.72;5056114;28;45478;-79
2022/05/13 16:25:45;;;;;;;;;0.75;0.75;;;;;29.67;22.81;101739.38;5056456;28;46670;-78
2022/05/13 16:28:11;;;;;;;;;1.00;1.00;;;;;29.35;23.16;101730.97;5056587;28;45463;-77
2022/05/13 16:30:37;;;;;;;;;0.00;0.00;;;;;29.27;23.20;101720.78;5055114;28;45409;-78
2022/05/13 16:33:02;;;;;;;;;1.00;0.50;;;;;29.40;23.17;101736.03;5055307;28;45497;-77
2022/05/13 16:35:29;;;;;;;;;1.75;0.00;;;;;29.51;23.40;101744.88;5056182;28;46517;-78
2022/05/13 16:37:56;;;;;;;;;0.75;0.75;;;;;29.41;23.51;101740.53;5053526;28;45334;-78
2022/05/13 16:40:26;;;;;;;;;2.50;0.00;;;;;29.46;22.97;101727.94;5047995;28;45321;-78
2022/05/13 16:42:53;;;;;;;;;1.00;0.00;;;;;29.51;23.51;101742.13;5045074;28;45493;-75
2022/05/13 16:45:19;;;;;;;;;2.00;0.75;;;;;29.57;23.13;101729.53;5055352;28;46272;-78